sensor_id;sensor_type;location;lat;lon;timestamp;temperature;humidity
72591;SHT31;60625;51.212;5.952;2023-08-21T00:02:08;20.91;68.82
72591;SHT31;60625;51.212;5.952;2023-08-21T00:07:09;20.89;68.89
72591;SHT31;60625;51.212;5.952;2023-08-21T00:12:11;20.87;68.75
72591;SHT31;60625;51.212;5.952;2023-08-21T00:17:12;20.81;68.25
72591;SHT31;60625;51.212;5.952;2023-08-21T00:22:12;20.78;68.22
72591;SHT31;60625;51.212;5.952;2023-08-21T00:27:13;20.70;68.92
72591;SHT31;60625;51.212;5.952;2023-08-21T00:32:13;20.63;68.98
72591;SHT31;60625;51.212;5.952;2023-08-21T00:37:13;20.59;69.21
72591;SHT31;60625;51.212;5.952;2023-08-21T00:42:14;20.56;68.92
72591;SHT31;60625;51.212;5.952;2023-08-21T00:47:16;20.52;68.90
72591;SHT31;60625;51.212;5.952;2023-08-21T00:52:16;20.49;68.79
72591;SHT31;60625;51.212;5.952;2023-08-21T00:57:19;20.42;68.96
72591;SHT31;60625;51.212;5.952;2023-08-21T01:02:21;20.38;68.60
72591;SHT31;60625;51.212;5.952;2023-08-21T01:07:21;20.31;68.75
72591;SHT31;60625;51.212;5.952;2023-08-21T01:12:34;20.25;68.93
72591;SHT31;60625;51.212;5.952;2023-08-21T01:17:45;20.17;68.89
72591;SHT31;60625;51.212;5.952;2023-08-21T01:22:47;20.12;69.11
72591;SHT31;60625;51.212;5.952;2023-08-21T01:27:48;20.08;68.85
72591;SHT31;60625;51.212;5.952;2023-08-21T01:38:07;19.94;69.11
72591;SHT31;60625;51.212;5.952;2023-08-21T01:43:08;19.90;69.23
72591;SHT31;60625;51.212;5.952;2023-08-21T01:48:08;19.86;69.36
72591;SHT31;60625;51.212;5.952;2023-08-21T01:53:10;19.80;69.53
72591;SHT31;60625;51.212;5.952;2023-08-21T01:58:10;19.73;69.80
72591;SHT31;60625;51.212;5.952;2023-08-21T02:03:12;19.67;70.17
72591;SHT31;60625;51.212;5.952;2023-08-21T02:08:14;19.60;70.31
72591;SHT31;60625;51.212;5.952;2023-08-21T02:13:15;19.54;70.72
72591;SHT31;60625;51.212;5.952;2023-08-21T02:18:16;19.49;70.75
72591;SHT31;60625;51.212;5.952;2023-08-21T02:23:16;19.44;70.87
72591;SHT31;60625;51.212;5.952;2023-08-21T02:28:17;19.40;70.90
72591;SHT31;60625;51.212;5.952;2023-08-21T02:33:17;19.34;70.96
72591;SHT31;60625;51.212;5.952;2023-08-21T02:38:18;19.29;70.98
72591;SHT31;60625;51.212;5.952;2023-08-21T02:43:19;19.26;71.21
72591;SHT31;60625;51.212;5.952;2023-08-21T02:48:19;19.18;71.25
72591;SHT31;60625;51.212;5.952;2023-08-21T02:53:20;19.16;71.28
72591;SHT31;60625;51.212;5.952;2023-08-21T02:58:20;19.07;71.77
72591;SHT31;60625;51.212;5.952;2023-08-21T03:03:21;18.93;72.07
72591;SHT31;60625;51.212;5.952;2023-08-21T03:08:21;18.91;71.82
72591;SHT31;60625;51.212;5.952;2023-08-21T03:13:22;18.89;71.74
72591;SHT31;60625;51.212;5.952;2023-08-21T03:18:22;18.87;71.91
72591;SHT31;60625;51.212;5.952;2023-08-21T03:23:23;18.86;72.04
72591;SHT31;60625;51.212;5.952;2023-08-21T03:28:24;18.81;72.29
72591;SHT31;60625;51.212;5.952;2023-08-21T03:33:24;18.77;72.44
72591;SHT31;60625;51.212;5.952;2023-08-21T03:38:25;18.73;72.43
72591;SHT31;60625;51.212;5.952;2023-08-21T03:43:26;18.71;72.53
72591;SHT31;60625;51.212;5.952;2023-08-21T03:48:27;18.71;72.60
72591;SHT31;60625;51.212;5.952;2023-08-21T03:53:27;18.71;72.58
72591;SHT31;60625;51.212;5.952;2023-08-21T03:58:27;18.71;72.50
72591;SHT31;60625;51.212;5.952;2023-08-21T04:03:28;18.69;72.54
72591;SHT31;60625;51.212;5.952;2023-08-21T04:08:29;18.70;72.54
72591;SHT31;60625;51.212;5.952;2023-08-21T04:13:30;18.70;72.66
72591;SHT31;60625;51.212;5.952;2023-08-21T04:18:30;18.71;72.82
72591;SHT31;60625;51.212;5.952;2023-08-21T04:23:30;18.69;72.76
72591;SHT31;60625;51.212;5.952;2023-08-21T04:28:31;18.65;73.11
72591;SHT31;60625;51.212;5.952;2023-08-21T04:33:34;18.57;73.25
72591;SHT31;60625;51.212;5.952;2023-08-21T04:38:36;18.54;73.32
72591;SHT31;60625;51.212;5.952;2023-08-21T04:43:37;18.50;73.34
72591;SHT31;60625;51.212;5.952;2023-08-21T04:48:38;18.44;73.50
72591;SHT31;60625;51.212;5.952;2023-08-21T04:53:39;18.42;73.69
72591;SHT31;60625;51.212;5.952;2023-08-21T04:58:43;18.40;73.82
72591;SHT31;60625;51.212;5.952;2023-08-21T05:03:44;18.33;74.14
72591;SHT31;60625;51.212;5.952;2023-08-21T05:08:45;18.30;74.25
72591;SHT31;60625;51.212;5.952;2023-08-21T05:13:46;18.30;74.35
72591;SHT31;60625;51.212;5.952;2023-08-21T05:18:47;18.33;74.30
72591;SHT31;60625;51.212;5.952;2023-08-21T05:23:49;18.37;74.33
72591;SHT31;60625;51.212;5.952;2023-08-21T05:28:49;18.40;75.09
72591;SHT31;60625;51.212;5.952;2023-08-21T05:33:50;18.42;75.48
72591;SHT31;60625;51.212;5.952;2023-08-21T05:38:50;18.53;74.71
72591;SHT31;60625;51.212;5.952;2023-08-21T05:43:52;18.62;74.57
72591;SHT31;60625;51.212;5.952;2023-08-21T05:48:56;18.69;74.56
72591;SHT31;60625;51.212;5.952;2023-08-21T05:53:57;18.72;74.51
72591;SHT31;60625;51.212;5.952;2023-08-21T05:58:57;18.78;74.66
72591;SHT31;60625;51.212;5.952;2023-08-21T06:03:59;18.86;74.82
72591;SHT31;60625;51.212;5.952;2023-08-21T06:09:17;18.99;74.50
72591;SHT31;60625;51.212;5.952;2023-08-21T06:14:18;19.09;74.20
72591;SHT31;60625;51.212;5.952;2023-08-21T06:19:19;19.22;74.13
72591;SHT31;60625;51.212;5.952;2023-08-21T06:24:19;19.36;73.82
72591;SHT31;60625;51.212;5.952;2023-08-21T06:29:20;19.52;73.87
72591;SHT31;60625;51.212;5.952;2023-08-21T06:34:23;19.65;73.26
72591;SHT31;60625;51.212;5.952;2023-08-21T06:39:25;19.76;72.81
72591;SHT31;60625;51.212;5.952;2023-08-21T06:44:26;19.88;72.74
72591;SHT31;60625;51.212;5.952;2023-08-21T06:49:27;20.03;72.46
72591;SHT31;60625;51.212;5.952;2023-08-21T06:54:27;20.15;72.39
72591;SHT31;60625;51.212;5.952;2023-08-21T06:59:27;20.29;72.06
72591;SHT31;60625;51.212;5.952;2023-08-21T07:04:28;20.43;71.73
72591;SHT31;60625;51.212;5.952;2023-08-21T07:09:28;20.60;71.41
72591;SHT31;60625;51.212;5.952;2023-08-21T07:14:29;20.80;71.07
72591;SHT31;60625;51.212;5.952;2023-08-21T07:19:30;21.03;70.43
72591;SHT31;60625;51.212;5.952;2023-08-21T07:24:30;21.30;69.40
72591;SHT31;60625;51.212;5.952;2023-08-21T07:29:31;21.53;67.93
72591;SHT31;60625;51.212;5.952;2023-08-21T07:34:31;21.76;67.91
72591;SHT31;60625;51.212;5.952;2023-08-21T07:39:32;22.01;67.01
72591;SHT31;60625;51.212;5.952;2023-08-21T07:44:32;22.24;66.43
72591;SHT31;60625;51.212;5.952;2023-08-21T07:49:33;22.47;65.50
72591;SHT31;60625;51.212;5.952;2023-08-21T07:54:33;22.68;64.81
72591;SHT31;60625;51.212;5.952;2023-08-21T07:59:34;22.89;64.07
72591;SHT31;60625;51.212;5.952;2023-08-21T08:04:34;23.11;62.53
72591;SHT31;60625;51.212;5.952;2023-08-21T08:09:34;23.29;61.58
72591;SHT31;60625;51.212;5.952;2023-08-21T08:14:36;23.50;60.41
72591;SHT31;60625;51.212;5.952;2023-08-21T08:19:36;23.72;59.74
72591;SHT31;60625;51.212;5.952;2023-08-21T08:24:37;23.96;60.64
72591;SHT31;60625;51.212;5.952;2023-08-21T08:29:37;24.20;59.51
72591;SHT31;60625;51.212;5.952;2023-08-21T08:34:38;24.31;57.99
72591;SHT31;60625;51.212;5.952;2023-08-21T08:39:38;24.50;59.08
72591;SHT31;60625;51.212;5.952;2023-08-21T08:44:38;24.70;59.48
72591;SHT31;60625;51.212;5.952;2023-08-21T08:49:41;24.80;58.93
72591;SHT31;60625;51.212;5.952;2023-08-21T08:54:41;24.92;58.26
72591;SHT31;60625;51.212;5.952;2023-08-21T08:59:42;25.06;57.96
72591;SHT31;60625;51.212;5.952;2023-08-21T09:04:42;25.11;58.35
72591;SHT31;60625;51.212;5.952;2023-08-21T09:09:46;25.31;58.84
72591;SHT31;60625;51.212;5.952;2023-08-21T09:14:53;25.40;57.74
72591;SHT31;60625;51.212;5.952;2023-08-21T09:19:53;25.56;57.56
72591;SHT31;60625;51.212;5.952;2023-08-21T09:30:10;26.03;56.46
72591;SHT31;60625;51.212;5.952;2023-08-21T09:35:16;26.22;56.13
72591;SHT31;60625;51.212;5.952;2023-08-21T09:40:17;26.36;54.71
72591;SHT31;60625;51.212;5.952;2023-08-21T09:45:19;26.51;54.25
72591;SHT31;60625;51.212;5.952;2023-08-21T09:50:22;26.64;54.08
72591;SHT31;60625;51.212;5.952;2023-08-21T09:55:23;26.78;53.78
72591;SHT31;60625;51.212;5.952;2023-08-21T10:00:33;26.89;52.62
72591;SHT31;60625;51.212;5.952;2023-08-21T10:05:38;26.91;53.55
72591;SHT31;60625;51.212;5.952;2023-08-21T10:10:39;26.98;53.03
72591;SHT31;60625;51.212;5.952;2023-08-21T10:15:40;27.04;52.42
72591;SHT31;60625;51.212;5.952;2023-08-21T10:20:43;27.01;52.74
72591;SHT31;60625;51.212;5.952;2023-08-21T10:25:44;27.15;52.39
72591;SHT31;60625;51.212;5.952;2023-08-21T10:30:44;27.28;51.49
72591;SHT31;60625;51.212;5.952;2023-08-21T10:35:45;27.40;51.29
72591;SHT31;60625;51.212;5.952;2023-08-21T10:41:07;27.65;51.05
72591;SHT31;60625;51.212;5.952;2023-08-21T10:46:10;27.70;51.40
72591;SHT31;60625;51.212;5.952;2023-08-21T10:51:12;27.90;50.19
72591;SHT31;60625;51.212;5.952;2023-08-21T10:56:13;28.08;49.13
72591;SHT31;60625;51.212;5.952;2023-08-21T11:01:14;28.03;50.31
72591;SHT31;60625;51.212;5.952;2023-08-21T11:06:18;28.14;50.01
72591;SHT31;60625;51.212;5.952;2023-08-21T11:11:19;28.33;49.19
72591;SHT31;60625;51.212;5.952;2023-08-21T11:16:19;28.47;49.19
72591;SHT31;60625;51.212;5.952;2023-08-21T11:21:20;28.51;48.89
72591;SHT31;60625;51.212;5.952;2023-08-21T11:26:25;28.49;48.54
72591;SHT31;60625;51.212;5.952;2023-08-21T11:31:26;28.61;48.36
72591;SHT31;60625;51.212;5.952;2023-08-21T11:36:27;28.66;48.97
72591;SHT31;60625;51.212;5.952;2023-08-21T11:41:28;28.78;47.22
72591;SHT31;60625;51.212;5.952;2023-08-21T11:46:29;28.90;46.81
72591;SHT31;60625;51.212;5.952;2023-08-21T11:51:36;29.04;46.91
72591;SHT31;60625;51.212;5.952;2023-08-21T11:56:39;29.18;46.79
72591;SHT31;60625;51.212;5.952;2023-08-21T12:01:42;29.36;46.63
72591;SHT31;60625;51.212;5.952;2023-08-21T12:06:43;29.34;46.31
72591;SHT31;60625;51.212;5.952;2023-08-21T12:11:45;29.69;46.04
72591;SHT31;60625;51.212;5.952;2023-08-21T12:16:46;29.94;45.33
72591;SHT31;60625;51.212;5.952;2023-08-21T12:21:46;29.87;44.86
72591;SHT31;60625;51.212;5.952;2023-08-21T12:26:47;29.56;46.27
72591;SHT31;60625;51.212;5.952;2023-08-21T12:31:47;29.06;45.97
72591;SHT31;60625;51.212;5.952;2023-08-21T12:36:50;28.74;46.86
72591;SHT31;60625;51.212;5.952;2023-08-21T12:41:51;28.97;46.82
72591;SHT31;60625;51.212;5.952;2023-08-21T12:46:52;29.16;45.29
72591;SHT31;60625;51.212;5.952;2023-08-21T12:51:53;29.41;44.92
72591;SHT31;60625;51.212;5.952;2023-08-21T12:56:58;29.43;44.66
72591;SHT31;60625;51.212;5.952;2023-08-21T13:01:59;29.69;43.65
72591;SHT31;60625;51.212;5.952;2023-08-21T13:07:04;29.88;43.88
72591;SHT31;60625;51.212;5.952;2023-08-21T13:12:05;29.98;44.28
72591;SHT31;60625;51.212;5.952;2023-08-21T13:17:06;29.95;44.35
72591;SHT31;60625;51.212;5.952;2023-08-21T13:22:06;29.95;43.17
72591;SHT31;60625;51.212;5.952;2023-08-21T13:27:07;29.99;43.36
72591;SHT31;60625;51.212;5.952;2023-08-21T13:32:08;30.01;43.40
72591;SHT31;60625;51.212;5.952;2023-08-21T13:37:08;29.89;43.99
72591;SHT31;60625;51.212;5.952;2023-08-21T13:42:09;29.48;44.56
72591;SHT31;60625;51.212;5.952;2023-08-21T13:47:09;29.25;45.59
72591;SHT31;60625;51.212;5.952;2023-08-21T13:52:10;29.09;45.76
72591;SHT31;60625;51.212;5.952;2023-08-21T13:57:10;29.19;46.33
72591;SHT31;60625;51.212;5.952;2023-08-21T14:02:11;29.22;45.90
72591;SHT31;60625;51.212;5.952;2023-08-21T14:07:12;29.18;45.73
72591;SHT31;60625;51.212;5.952;2023-08-21T14:12:12;29.41;45.56
72591;SHT31;60625;51.212;5.952;2023-08-21T14:17:13;29.59;46.51
72591;SHT31;60625;51.212;5.952;2023-08-21T14:22:14;29.56;45.76
72591;SHT31;60625;51.212;5.952;2023-08-21T14:27:15;29.17;46.26
72591;SHT31;60625;51.212;5.952;2023-08-21T14:32:15;28.95;47.40
72591;SHT31;60625;51.212;5.952;2023-08-21T14:37:16;28.84;46.74
72591;SHT31;60625;51.212;5.952;2023-08-21T14:42:16;28.91;47.54
72591;SHT31;60625;51.212;5.952;2023-08-21T14:47:17;29.20;46.29
72591;SHT31;60625;51.212;5.952;2023-08-21T14:52:18;29.40;45.31
72591;SHT31;60625;51.212;5.952;2023-08-21T14:57:18;29.63;45.28
72591;SHT31;60625;51.212;5.952;2023-08-21T15:02:19;29.91;45.26
72591;SHT31;60625;51.212;5.952;2023-08-21T15:07:19;29.59;44.96
72591;SHT31;60625;51.212;5.952;2023-08-21T15:12:19;29.33;45.88
72591;SHT31;60625;51.212;5.952;2023-08-21T15:17:21;29.37;45.59
72591;SHT31;60625;51.212;5.952;2023-08-21T15:22:21;29.49;44.69
72591;SHT31;60625;51.212;5.952;2023-08-21T15:27:21;29.46;44.76
72591;SHT31;60625;51.212;5.952;2023-08-21T15:32:22;29.60;43.94
72591;SHT31;60625;51.212;5.952;2023-08-21T15:37:22;29.60;43.31
72591;SHT31;60625;51.212;5.952;2023-08-21T15:42:24;29.48;43.52
72591;SHT31;60625;51.212;5.952;2023-08-21T15:47:24;29.31;45.97
72591;SHT31;60625;51.212;5.952;2023-08-21T15:52:29;29.26;45.26
72591;SHT31;60625;51.212;5.952;2023-08-21T15:57:29;29.30;44.21
72591;SHT31;60625;51.212;5.952;2023-08-21T16:02:31;29.29;43.18
72591;SHT31;60625;51.212;5.952;2023-08-21T16:07:32;29.36;44.35
72591;SHT31;60625;51.212;5.952;2023-08-21T16:12:33;29.31;44.17
72591;SHT31;60625;51.212;5.952;2023-08-21T16:17:34;29.29;44.71
72591;SHT31;60625;51.212;5.952;2023-08-21T16:22:37;29.27;44.51
72591;SHT31;60625;51.212;5.952;2023-08-21T16:27:37;29.30;44.17
72591;SHT31;60625;51.212;5.952;2023-08-21T16:32:38;29.25;44.17
72591;SHT31;60625;51.212;5.952;2023-08-21T16:37:39;29.16;43.96
72591;SHT31;60625;51.212;5.952;2023-08-21T16:42:40;29.08;43.93
72591;SHT31;60625;51.212;5.952;2023-08-21T16:47:40;29.07;43.60
72591;SHT31;60625;51.212;5.952;2023-08-21T16:52:41;29.06;44.53
72591;SHT31;60625;51.212;5.952;2023-08-21T16:57:41;28.88;45.56
72591;SHT31;60625;51.212;5.952;2023-08-21T17:02:42;28.50;47.10
72591;SHT31;60625;51.212;5.952;2023-08-21T17:07:42;28.28;48.26
72591;SHT31;60625;51.212;5.952;2023-08-21T17:12:44;28.02;48.85
72591;SHT31;60625;51.212;5.952;2023-08-21T17:17:48;27.70;49.69
72591;SHT31;60625;51.212;5.952;2023-08-21T17:22:49;27.45;50.60
72591;SHT31;60625;51.212;5.952;2023-08-21T17:27:49;27.25;51.40
72591;SHT31;60625;51.212;5.952;2023-08-21T17:32:51;27.06;51.59
72591;SHT31;60625;51.212;5.952;2023-08-21T17:37:53;26.91;52.65
72591;SHT31;60625;51.212;5.952;2023-08-21T17:42:54;26.76;53.21
72591;SHT31;60625;51.212;5.952;2023-08-21T17:47:55;26.64;53.03
72591;SHT31;60625;51.212;5.952;2023-08-21T17:52:56;26.54;52.65
72591;SHT31;60625;51.212;5.952;2023-08-21T17:57:56;26.42;52.90
72591;SHT31;60625;51.212;5.952;2023-08-21T18:02:59;26.31;53.42
72591;SHT31;60625;51.212;5.952;2023-08-21T18:08:00;26.18;54.43
72591;SHT31;60625;51.212;5.952;2023-08-21T18:13:00;26.11;55.28
72591;SHT31;60625;51.212;5.952;2023-08-21T18:18:03;25.92;57.10
72591;SHT31;60625;51.212;5.952;2023-08-21T18:23:05;25.68;58.31
72591;SHT31;60625;51.212;5.952;2023-08-21T18:28:05;25.48;58.42
72591;SHT31;60625;51.212;5.952;2023-08-21T18:33:06;25.28;58.58
72591;SHT31;60625;51.212;5.952;2023-08-21T18:38:06;25.01;59.99
72591;SHT31;60625;51.212;5.952;2023-08-21T18:43:08;24.91;59.79
72591;SHT31;60625;51.212;5.952;2023-08-21T18:48:08;24.83;59.35
72591;SHT31;60625;51.212;5.952;2023-08-21T18:53:12;24.72;59.94
72591;SHT31;60625;51.212;5.952;2023-08-21T18:58:15;24.49;61.20
72591;SHT31;60625;51.212;5.952;2023-08-21T19:03:16;24.37;61.58
72591;SHT31;60625;51.212;5.952;2023-08-21T19:08:16;24.36;62.08
72591;SHT31;60625;51.212;5.952;2023-08-21T19:13:17;24.22;62.26
72591;SHT31;60625;51.212;5.952;2023-08-21T19:18:17;24.10;62.46
72591;SHT31;60625;51.212;5.952;2023-08-21T19:23:18;23.96;62.83
72591;SHT31;60625;51.212;5.952;2023-08-21T19:28:19;23.81;63.08
72591;SHT31;60625;51.212;5.952;2023-08-21T19:33:20;23.61;63.97
72591;SHT31;60625;51.212;5.952;2023-08-21T19:38:24;23.44;64.45
72591;SHT31;60625;51.212;5.952;2023-08-21T19:43:24;23.40;64.03
72591;SHT31;60625;51.212;5.952;2023-08-21T19:48:25;23.35;63.52
72591;SHT31;60625;51.212;5.952;2023-08-21T19:53:25;23.30;63.93
72591;SHT31;60625;51.212;5.952;2023-08-21T19:58:27;23.24;64.41
72591;SHT31;60625;51.212;5.952;2023-08-21T20:03:28;23.15;64.85
72591;SHT31;60625;51.212;5.952;2023-08-21T20:08:29;23.04;64.35
72591;SHT31;60625;51.212;5.952;2023-08-21T20:13:31;22.86;64.13
72591;SHT31;60625;51.212;5.952;2023-08-21T20:18:32;22.56;65.43
72591;SHT31;60625;51.212;5.952;2023-08-21T20:23:33;22.38;65.93
72591;SHT31;60625;51.212;5.952;2023-08-21T20:28:34;22.20;66.56
72591;SHT31;60625;51.212;5.952;2023-08-21T20:33:34;21.93;67.06
72591;SHT31;60625;51.212;5.952;2023-08-21T20:38:35;21.93;67.11
72591;SHT31;60625;51.212;5.952;2023-08-21T20:43:36;21.93;66.92
72591;SHT31;60625;51.212;5.952;2023-08-21T20:48:36;21.89;66.71
72591;SHT31;60625;51.212;5.952;2023-08-21T20:53:38;21.87;66.57
72591;SHT31;60625;51.212;5.952;2023-08-21T20:58:38;21.90;66.54
72591;SHT31;60625;51.212;5.952;2023-08-21T21:03:39;21.77;67.15
72591;SHT31;60625;51.212;5.952;2023-08-21T21:08:39;21.69;67.24
72591;SHT31;60625;51.212;5.952;2023-08-21T21:13:40;21.46;68.08
72591;SHT31;60625;51.212;5.952;2023-08-21T21:18:42;21.33;68.57
72591;SHT31;60625;51.212;5.952;2023-08-21T21:23:42;21.19;69.07
72591;SHT31;60625;51.212;5.952;2023-08-21T21:28:43;21.05;69.64
72591;SHT31;60625;51.212;5.952;2023-08-21T21:33:44;21.02;69.83
72591;SHT31;60625;51.212;5.952;2023-08-21T21:38:46;21.01;70.10
72591;SHT31;60625;51.212;5.952;2023-08-21T21:43:47;20.98;70.32
72591;SHT31;60625;51.212;5.952;2023-08-21T21:48:49;20.96;70.25
72591;SHT31;60625;51.212;5.952;2023-08-21T21:53:51;20.91;70.28
72591;SHT31;60625;51.212;5.952;2023-08-21T21:58:51;20.83;70.11
72591;SHT31;60625;51.212;5.952;2023-08-21T22:03:53;20.80;69.94
72591;SHT31;60625;51.212;5.952;2023-08-21T22:08:53;20.75;69.71
72591;SHT31;60625;51.212;5.952;2023-08-21T22:13:53;20.69;69.43
72591;SHT31;60625;51.212;5.952;2023-08-21T22:18:54;20.60;69.86
72591;SHT31;60625;51.212;5.952;2023-08-21T22:23:55;20.44;70.46
72591;SHT31;60625;51.212;5.952;2023-08-21T22:28:55;20.26;71.25
72591;SHT31;60625;51.212;5.952;2023-08-21T22:33:56;20.19;71.56
72591;SHT31;60625;51.212;5.952;2023-08-21T22:38:56;20.20;71.31
72591;SHT31;60625;51.212;5.952;2023-08-21T22:43:57;20.19;71.32
72591;SHT31;60625;51.212;5.952;2023-08-21T22:48:58;20.15;71.58
72591;SHT31;60625;51.212;5.952;2023-08-21T22:53:58;20.13;71.82
72591;SHT31;60625;51.212;5.952;2023-08-21T22:58:59;20.13;71.23
72591;SHT31;60625;51.212;5.952;2023-08-21T23:03:59;20.14;70.80
72591;SHT31;60625;51.212;5.952;2023-08-21T23:09:00;20.08;71.40
72591;SHT31;60625;51.212;5.952;2023-08-21T23:14:00;20.02;71.83
72591;SHT31;60625;51.212;5.952;2023-08-21T23:19:01;19.91;72.05
72591;SHT31;60625;51.212;5.952;2023-08-21T23:24:02;19.80;72.52
72591;SHT31;60625;51.212;5.952;2023-08-21T23:29:05;19.75;72.13
72591;SHT31;60625;51.212;5.952;2023-08-21T23:34:06;19.69;72.01
72591;SHT31;60625;51.212;5.952;2023-08-21T23:39:07;19.66;71.99
72591;SHT31;60625;51.212;5.952;2023-08-21T23:44:08;19.67;72.29
72591;SHT31;60625;51.212;5.952;2023-08-21T23:49:09;19.68;72.05
72591;SHT31;60625;51.212;5.952;2023-08-21T23:54:10;19.57;72.49
72591;SHT31;60625;51.212;5.952;2023-08-21T23:59:10;19.46;72.96
